Time;durP1;ratioP1;P1;durP2;ratioP2;P2;SDS_P1;SDS_P2;PMS_P1;PMS_P2;Temp;Humidity;BMP_temperature;BMP_pressure;BME280_temperature;BME280_humidity;BME280_pressure;Samples;Min_cycle;Max_cycle;Signal;HPM_P1;HPM_P2
2021/04/26 00:00:30;;;;;;;12.05;3.17;;;6.60;99.90;;;;;;5073951;28;20177;-77
2021/04/26 00:02:59;;;;;;;11.47;3.60;;;6.60;99.90;;;;;;5073812;28;20205;-77
2021/04/26 00:05:27;;;;;;;12.38;2.90;;;6.60;99.90;;;;;;5073562;28;20535;-77
2021/04/26 00:07:54;;;;;;;6.65;2.97;;;6.60;99.90;;;;;;5075022;28;20185;-77
2021/04/26 00:10:20;;;;;;;9.07;2.37;;;6.60;99.90;;;;;;5075115;28;20217;-77
2021/04/26 00:12:46;;;;;;;11.32;3.05;;;6.50;99.90;;;;;;5074002;28;20179;-77
2021/04/26 00:15:17;;;;;;;9.02;2.67;;;6.40;99.90;;;;;;5073488;28;20620;-78
2021/04/26 00:17:43;;;;;;;7.53;3.33;;;6.50;99.90;;;;;;5073624;28;20263;-78
2021/04/26 00:20:11;;;;;;;10.80;2.83;;;6.50;99.90;;;;;;5074789;28;20174;-78
2021/04/26 00:22:37;;;;;;;13.73;2.70;;;6.40;99.90;;;;;;5074717;28;20170;-78
2021/04/26 00:25:06;;;;;;;17.60;3.67;;;6.40;99.90;;;;;;5089225;28;20173;-77
2021/04/26 00:27:33;;;;;;;9.40;2.47;;;6.40;99.90;;;;;;5095101;28;20166;-77
2021/04/26 00:29:59;;;;;;;7.70;2.15;;;6.40;99.90;;;;;;5095156;28;20166;-77
2021/04/26 00:32:24;;;;;;;8.80;2.80;;;6.40;99.90;;;;;;5094302;28;20224;-77
2021/04/26 00:34:50;;;;;;;16.27;2.60;;;6.30;99.90;;;;;;5080096;28;20220;-78
2021/04/26 00:37:15;;;;;;;13.00;3.37;;;6.40;99.90;;;;;;5074401;28;20783;-77
2021/04/26 00:39:41;;;;;;;12.87;2.77;;;6.40;99.90;;;;;;5073443;28;20174;-78
2021/04/26 00:42:07;;;;;;;13.35;2.75;;;6.30;99.90;;;;;;5074574;28;20182;-78
2021/04/26 00:44:32;;;;;;;6.80;2.30;;;6.30;99.90;;;;;;5072767;28;20179;-78
2021/04/26 00:46:58;;;;;;;10.40;2.80;;;6.40;99.90;;;;;;5072562;28;20186;-77
2021/04/26 00:49:24;;;;;;;11.73;3.23;;;6.20;99.90;;;;;;5074147;28;20171;-77
2021/04/26 00:51:49;;;;;;;11.40;3.17;;;6.10;99.90;;;;;;5072594;28;20212;-78
2021/04/26 00:54:15;;;;;;;13.77;3.27;;;6.00;99.90;;;;;;5074111;28;20570;-77
2021/04/26 00:56:41;;;;;;;10.37;3.73;;;6.00;99.90;;;;;;5074324;28;20167;-77
2021/04/26 00:59:08;;;;;;;10.40;3.20;;;5.90;99.90;;;;;;5074152;28;20189;-77
2021/04/26 01:01:33;;;;;;;7.47;2.43;;;5.80;99.90;;;;;;5073988;28;20170;-78
2021/04/26 01:03:59;;;;;;;13.33;3.27;;;5.80;99.90;;;;;;5073500;28;20198;-77
2021/04/26 01:06:25;;;;;;;8.57;3.07;;;5.90;99.90;;;;;;5072790;28;20589;-77
2021/04/26 01:08:50;;;;;;;8.80;2.83;;;5.80;99.90;;;;;;5072710;28;20173;-78
2021/04/26 01:11:16;;;;;;;11.17;3.37;;;5.90;99.90;;;;;;5072723;28;20203;-77
2021/04/26 01:14:09;;;;;;;8.30;2.70;;;5.80;99.90;;;;;;5073594;28;20181;-78
2021/04/26 01:16:47;;;;;;;14.40;2.70;;;5.80;99.90;;;;;;5072231;28;20232;-78
2021/04/26 01:19:46;;;;;;;7.87;2.83;;;5.80;99.90;;;;;;5072558;28;20167;-77
2021/04/26 01:22:29;;;;;;;8.37;2.50;;;5.90;99.90;;;;;;5073807;28;20641;-77
2021/04/26 01:25:04;;;;;;;9.33;2.70;;;5.90;99.90;;;;;;5072047;28;20257;-77
2021/04/26 01:28:05;;;;;;;9.20;3.10;;;5.90;99.90;;;;;;5072509;28;20166;-77
2021/04/26 01:30:33;;;;;;;6.70;3.00;;;5.70;99.90;;;;;;5034585;28;20638;-78
2021/04/26 01:33:12;;;;;;;13.50;2.97;;;5.70;99.90;;;;;;5072044;28;20188;-77
2021/04/26 01:35:38;;;;;;;13.70;2.70;;;5.70;99.90;;;;;;5053781;28;20171;-77
2021/04/26 01:38:27;;;;;;;14.17;3.93;;;5.60;99.90;;;;;;5053645;28;20524;-78
2021/04/26 01:40:53;;;;;;;11.70;2.90;;;5.70;99.90;;;;;;5053686;28;20656;-77
2021/04/26 01:43:22;;;;;;;13.53;2.97;;;5.60;99.90;;;;;;5055797;28;20254;-77
2021/04/26 01:45:52;;;;;;;5.53;2.80;;;5.70;99.90;;;;;;5071692;28;20581;-78
2021/04/26 01:48:18;;;;;;;11.77;2.83;;;5.60;99.90;;;;;;5053475;28;20191;-78
2021/04/26 01:50:44;;;;;;;13.60;3.03;;;5.60;99.90;;;;;;5053400;28;20231;-77
2021/04/26 01:53:10;;;;;;;11.00;3.03;;;5.80;99.90;;;;;;5068158;28;20186;-78
2021/04/26 01:55:36;;;;;;;4.53;2.70;;;5.80;99.90;;;;;;5073591;28;20171;-77
2021/04/26 01:58:03;;;;;;;12.83;2.47;;;5.70;99.90;;;;;;5071949;28;20297;-78
2021/04/26 02:00:31;;;;;;;7.23;3.40;;;5.60;99.90;;;;;;5072009;28;20174;-78
2021/04/26 02:02:57;;;;;;;9.83;3.17;;;5.60;99.90;;;;;;5073059;28;20241;-77
2021/04/26 02:05:26;;;;;;;10.23;3.00;;;5.60;99.90;;;;;;5072981;28;20658;-77
2021/04/26 02:07:53;;;;;;;8.93;2.97;;;5.50;99.90;;;;;;5071862;28;20171;-79
2021/04/26 02:10:22;;;;;;;7.20;3.30;;;5.40;99.90;;;;;;5072063;28;20182;-77
2021/04/26 02:12:48;;;;;;;8.30;3.10;;;5.40;99.90;;;;;;5073027;28;20185;-77
2021/04/26 02:15:19;;;;;;;16.90;3.20;;;5.40;99.90;;;;;;5051393;28;20213;-77
2021/04/26 02:17:47;;;;;;;8.10;2.70;;;5.30;99.90;;;;;;5071778;28;20631;-77
2021/04/26 02:20:16;;;;;;;17.17;3.57;;;5.20;99.90;;;;;;5071783;28;20181;-78
2021/04/26 02:22:42;;;;;;;8.30;3.17;;;5.00;99.90;;;;;;5073050;28;20627;-77
2021/04/26 02:25:10;;;;;;;10.00;3.17;;;5.00;99.90;;;;;;5071324;28;20671;-78
2021/04/26 02:27:37;;;;;;;10.73;3.10;;;5.00;99.90;;;;;;5071747;28;20198;-77
2021/04/26 02:30:04;;;;;;;5.93;2.83;;;5.10;99.90;;;;;;5072958;28;20173;-77
2021/04/26 02:32:38;;;;;;;5.37;2.73;;;5.10;99.90;;;;;;5071191;28;20229;-78
2021/04/26 02:35:07;;;;;;;14.37;3.03;;;5.10;99.90;;;;;;5072728;28;20186;-77
2021/04/26 02:37:52;;;;;;;11.47;3.20;;;5.00;99.90;;;;;;5072671;28;20178;-77
2021/04/26 02:40:19;;;;;;;14.07;3.63;;;5.00;99.90;;;;;;5073088;28;20167;-77
2021/04/26 02:42:47;;;;;;;6.37;3.07;;;5.00;99.90;;;;;;5072595;28;20254;-77
2021/04/26 02:45:23;;;;;;;8.27;2.77;;;4.90;99.90;;;;;;5071501;28;20175;-77
2021/04/26 02:47:50;;;;;;;7.83;3.47;;;5.00;99.90;;;;;;5072645;28;20171;-77
2021/04/26 02:50:19;;;;;;;11.67;3.27;;;5.00;99.90;;;;;;5071312;28;20178;-77
2021/04/26 02:52:46;;;;;;;20.03;3.57;;;4.90;99.90;;;;;;5071180;28;20198;-77
2021/04/26 02:55:13;;;;;;;11.63;3.17;;;4.80;99.90;;;;;;5074049;28;20225;-77
2021/04/26 02:57:39;;;;;;;10.87;3.40;;;4.80;99.90;;;;;;5076181;28;20166;-77
2021/04/26 03:00:07;;;;;;;7.83;3.00;;;4.90;99.90;;;;;;5076221;28;20178;-77
2021/04/26 03:02:34;;;;;;;15.27;3.40;;;4.90;99.90;;;;;;5076059;28;20225;-78
2021/04/26 03:05:01;;;;;;;9.87;3.40;;;4.80;99.90;;;;;;5057811;28;20175;-78
2021/04/26 03:07:28;;;;;;;8.63;3.40;;;4.70;99.90;;;;;;5076427;28;20196;-77
2021/04/26 03:09:55;;;;;;;11.40;3.27;;;4.70;99.90;;;;;;5076395;28;20191;-77
2021/04/26 03:12:21;;;;;;;10.33;3.03;;;4.70;99.90;;;;;;5074751;28;20643;-77
2021/04/26 03:14:47;;;;;;;17.10;3.17;;;4.70;99.90;;;;;;5075852;28;20582;-77
2021/04/26 03:17:14;;;;;;;13.50;3.43;;;4.80;99.90;;;;;;5074607;28;20185;-77
2021/04/26 03:19:41;;;;;;;8.57;3.23;;;4.80;99.90;;;;;;5074794;28;20167;-77
2021/04/26 03:22:07;;;;;;;13.00;3.53;;;4.90;99.90;;;;;;5074935;28;20178;-77
2021/04/26 03:24:33;;;;;;;12.67;2.97;;;4.90;99.90;;;;;;5074273;28;20167;-77
2021/04/26 03:27:00;;;;;;;12.77;3.57;;;4.80;99.90;;;;;;5058009;28;20171;-77
2021/04/26 03:29:27;;;;;;;10.20;2.90;;;4.70;99.90;;;;;;5074631;28;20179;-77
2021/04/26 03:31:53;;;;;;;8.13;3.37;;;4.80;99.90;;;;;;5057776;28;20230;-77
2021/04/26 03:34:19;;;;;;;9.83;2.90;;;4.70;99.90;;;;;;5074390;28;20284;-78
2021/04/26 03:36:46;;;;;;;15.57;3.37;;;4.70;99.90;;;;;;5075923;28;20169;-77
2021/04/26 03:39:15;;;;;;;8.20;3.13;;;4.70;99.90;;;;;;5075688;28;20593;-78
2021/04/26 03:41:42;;;;;;;11.73;3.53;;;4.70;99.90;;;;;;5074472;28;20178;-77
2021/04/26 03:44:18;;;;;;;9.30;3.83;;;4.60;99.90;;;;;;5086273;28;20257;-77
2021/04/26 03:46:57;;;;;;;9.20;3.37;;;4.50;99.90;;;;;;5083453;28;20178;-77
2021/04/26 03:49:23;;;;;;;7.17;3.07;;;4.50;99.90;;;;;;5075985;28;20573;-77
2021/04/26 03:51:49;;;;;;;13.00;3.50;;;4.50;99.90;;;;;;5073650;28;20199;-78
2021/04/26 03:54:15;;;;;;;8.07;4.00;;;4.50;99.90;;;;;;5074076;28;20205;-77
2021/04/26 03:56:40;;;;;;;7.70;3.47;;;4.40;99.90;;;;;;5075401;28;20178;-77
2021/04/26 03:59:07;;;;;;;8.90;3.03;;;4.40;99.90;;;;;;5075310;28;20174;-77
2021/04/26 04:01:32;;;;;;;11.00;3.37;;;4.40;99.90;;;;;;5075192;28;20182;-78
2021/04/26 04:03:58;;;;;;;7.33;3.43;;;4.50;99.90;;;;;;5073699;28;20658;-77
2021/04/26 04:06:24;;;;;;;21.80;4.33;;;4.40;99.90;;;;;;5073063;28;20171;-77
2021/04/26 04:08:49;;;;;;;12.33;3.43;;;4.40;99.90;;;;;;5075056;28;20171;-77
2021/04/26 04:11:15;;;;;;;13.40;3.60;;;4.40;99.90;;;;;;5075086;28;20199;-78
2021/04/26 04:13:41;;;;;;;13.03;3.37;;;4.40;99.90;;;;;;5074603;28;20262;-78
2021/04/26 04:16:07;;;;;;;8.27;3.10;;;4.50;99.90;;;;;;5073535;28;20199;-77
2021/04/26 04:18:33;;;;;;;16.77;3.40;;;4.50;99.90;;;;;;5073962;28;20265;-78
2021/04/26 04:21:00;;;;;;;12.43;3.50;;;4.50;99.90;;;;;;5056950;28;20182;-77
2021/04/26 04:23:25;;;;;;;14.43;4.23;;;4.60;99.90;;;;;;5074645;28;20171;-78
2021/04/26 04:25:52;;;;;;;11.03;3.73;;;4.60;99.90;;;;;;5056710;28;20178;-78
2021/04/26 04:28:17;;;;;;;9.63;3.23;;;4.70;99.90;;;;;;5073389;28;20163;-77
2021/04/26 04:30:43;;;;;;;10.67;3.60;;;4.70;99.90;;;;;;5074747;28;20225;-78
2021/04/26 04:33:09;;;;;;;18.23;4.23;;;4.60;99.90;;;;;;5073154;28;20175;-78
2021/04/26 04:35:35;;;;;;;4.57;3.03;;;4.50;99.90;;;;;;5074306;28;20256;-77
2021/04/26 04:38:04;;;;;;;10.17;3.47;;;4.40;99.90;;;;;;5074557;28;20175;-77
2021/04/26 04:40:29;;;;;;;15.20;3.77;;;4.40;99.90;;;;;;5073317;28;20607;-77
2021/04/26 04:42:55;;;;;;;24.67;3.93;;;4.40;99.90;;;;;;5072725;28;20258;-77
2021/04/26 04:45:21;;;;;;;14.10;3.93;;;4.40;99.90;;;;;;5073171;28;20669;-77
2021/04/26 04:47:46;;;;;;;9.07;3.80;;;4.40;99.90;;;;;;5052781;28;20263;-78
2021/04/26 04:50:13;;;;;;;10.87;3.80;;;4.50;99.90;;;;;;5054507;28;20176;-78
2021/04/26 04:52:39;;;;;;;10.17;3.10;;;4.50;99.90;;;;;;5071963;28;20324;-77
2021/04/26 04:55:05;;;;;;;14.30;4.03;;;4.60;99.90;;;;;;5052850;28;20203;-77
2021/04/26 04:57:31;;;;;;;10.73;3.60;;;4.60;99.90;;;;;;5054300;28;20172;-77
2021/04/26 04:59:56;;;;;;;6.87;2.80;;;4.60;99.90;;;;;;5062043;28;20211;-77
2021/04/26 05:02:22;;;;;;;7.53;3.17;;;4.40;99.90;;;;;;5073528;28;20631;-78
2021/04/26 05:04:48;;;;;;;13.87;3.43;;;4.40;99.90;;;;;;5073072;28;20624;-78
2021/04/26 05:07:13;;;;;;;13.10;3.97;;;4.40;99.90;;;;;;5073936;28;20194;-78
2021/04/26 05:09:39;;;;;;;9.07;3.43;;;4.30;99.90;;;;;;5074086;28;20177;-77
2021/04/26 05:12:05;;;;;;;12.53;3.53;;;4.40;99.90;;;;;;5072356;28;20723;-77
2021/04/26 05:14:31;;;;;;;18.67;4.10;;;4.40;99.90;;;;;;5072483;28;20186;-77
2021/04/26 05:16:57;;;;;;;11.07;4.07;;;4.40;99.90;;;;;;5072048;28;20536;-77
2021/04/26 05:19:24;;;;;;;9.40;3.80;;;4.40;99.90;;;;;;5072415;28;20171;-78
2021/04/26 05:21:50;;;;;;;13.50;4.20;;;4.50;99.90;;;;;;5072399;28;20174;-77
2021/04/26 05:24:15;;;;;;;10.67;4.03;;;4.50;99.90;;;;;;5071958;28;20634;-78
2021/04/26 05:26:41;;;;;;;9.57;3.93;;;4.50;99.90;;;;;;5073471;28;20182;-77
2021/04/26 05:29:07;;;;;;;10.63;3.90;;;4.60;99.90;;;;;;5073465;28;20174;-77
2021/04/26 05:31:32;;;;;;;17.13;4.03;;;4.70;99.90;;;;;;5055573;28;20208;-77
2021/04/26 05:33:58;;;;;;;10.23;4.17;;;4.70;99.90;;;;;;5071862;28;20602;-78
2021/04/26 05:36:24;;;;;;;13.90;3.87;;;4.80;99.90;;;;;;5071945;28;20163;-77
2021/04/26 05:38:50;;;;;;;12.73;4.00;;;4.80;99.90;;;;;;5072156;28;20174;-77
2021/04/26 05:41:15;;;;;;;10.73;3.87;;;4.90;99.90;;;;;;5073242;28;20177;-77
2021/04/26 05:43:41;;;;;;;14.63;3.90;;;5.10;99.90;;;;;;5071540;28;20680;-78
2021/04/26 05:46:06;;;;;;;8.07;4.40;;;5.20;99.90;;;;;;5071905;28;20179;-77
2021/04/26 05:48:32;;;;;;;11.67;4.50;;;5.20;99.90;;;;;;5071937;28;20189;-77
2021/04/26 05:50:58;;;;;;;16.80;4.13;;;5.40;99.90;;;;;;5073258;28;20222;-77
2021/04/26 05:53:23;;;;;;;18.17;5.20;;;5.60;99.90;;;;;;5072598;28;20179;-78
2021/04/26 05:55:50;;;;;;;8.23;3.90;;;5.70;99.90;;;;;;5071922;28;20179;-77
2021/04/26 05:58:16;;;;;;;10.93;3.50;;;6.00;99.90;;;;;;5071621;28;20162;-77
2021/04/26 06:00:42;;;;;;;12.33;4.03;;;6.20;99.90;;;;;;5072150;28;20503;-77
2021/04/26 06:03:07;;;;;;;14.43;3.87;;;6.40;99.90;;;;;;5071215;28;20191;-77
2021/04/26 06:05:33;;;;;;;13.10;3.70;;;6.50;99.90;;;;;;5073117;28;20261;-78
2021/04/26 06:07:59;;;;;;;11.60;3.83;;;6.40;99.90;;;;;;5073050;28;20194;-78
2021/04/26 06:10:26;;;;;;;18.27;4.60;;;6.40;99.90;;;;;;5071689;28;20191;-78
2021/04/26 06:12:52;;;;;;;15.35;3.95;;;6.50;99.90;;;;;;5071097;28;20195;-78
2021/04/26 06:15:19;;;;;;;9.67;3.80;;;6.50;99.90;;;;;;5072909;28;20179;-78
2021/04/26 06:17:44;;;;;;;9.55;3.97;;;6.50;99.90;;;;;;5071828;28;20202;-81
2021/04/26 06:20:10;;;;;;;18.00;4.63;;;6.70;99.90;;;;;;5071869;28;20631;-82
2021/04/26 06:22:36;;;;;;;15.93;4.60;;;6.90;99.90;;;;;;5072774;28;20175;-82
2021/04/26 06:25:02;;;;;;;10.40;4.15;;;6.80;99.90;;;;;;5072539;28;20173;-82
2021/04/26 06:27:27;;;;;;;12.23;3.97;;;6.70;99.90;;;;;;5071984;28;20201;-82
2021/04/26 06:29:53;;;;;;;16.65;4.25;;;6.90;99.90;;;;;;5072645;28;20198;-82
2021/04/26 06:32:19;;;;;;;9.88;4.30;;;7.00;99.90;;;;;;5058780;28;20305;-82
2021/04/26 06:34:44;;;;;;;12.57;3.97;;;7.40;99.90;;;;;;5075952;28;20167;-82
2021/04/26 06:37:10;;;;;;;4.53;3.05;;;9.30;99.90;;;;;;5075459;28;20591;-82
2021/04/26 06:39:36;;;;;;;14.18;3.75;;;11.40;99.90;;;;;;5075344;28;20169;-82
2021/04/26 06:42:01;;;;;;;20.02;4.25;;;12.50;99.90;;;;;;5075367;28;20202;-78
2021/04/26 06:44:27;;;;;;;9.43;3.70;;;13.60;99.90;;;;;;5075586;28;20185;-78
2021/04/26 06:46:53;;;;;;;8.60;3.42;;;14.00;99.90;;;;;;5075314;28;20224;-79
2021/04/26 06:49:20;;;;;;;5.72;2.55;;;14.80;99.90;;;;;;5059016;28;20183;-79
2021/04/26 06:51:47;;;;;;;8.30;3.13;;;15.70;99.90;;;;;;5075216;28;20197;-78
2021/04/26 06:54:13;;;;;;;24.17;3.30;;;16.20;99.90;;;;;;5083131;28;20186;-78
2021/04/26 06:56:38;;;;;;;6.28;3.17;;;15.60;99.90;;;;;;5075573;28;20237;-78
2021/04/26 06:59:04;;;;;;;8.88;3.35;;;16.20;99.00;;;;;;5058787;28;20175;-78
2021/04/26 07:01:30;;;;;;;14.63;3.83;;;17.10;98.20;;;;;;5076331;28;20203;-78
2021/04/26 07:03:55;;;;;;;20.73;3.30;;;18.10;96.40;;;;;;5057694;28;20216;-78
2021/04/26 07:06:21;;;;;;;12.43;3.42;;;18.10;95.00;;;;;;5076117;28;20886;-78
2021/04/26 07:08:47;;;;;;;5.53;2.72;;;18.60;95.10;;;;;;5074857;28;20163;-78
2021/04/26 07:11:13;;;;;;;7.32;3.17;;;18.10;93.70;;;;;;5076151;28;20198;-78
2021/04/26 07:13:39;;;;;;;8.68;3.35;;;18.80;93.20;;;;;;5076236;28;20650;-79
2021/04/26 07:16:04;;;;;;;8.98;3.10;;;20.30;91.90;;;;;;5074718;28;20653;-79
2021/04/26 07:18:30;;;;;;;10.75;3.45;;;20.30;90.50;;;;;;5076031;28;20172;-79
2021/04/26 07:20:56;;;;;;;12.35;3.30;;;22.40;85.90;;;;;;5074758;28;20178;-78
2021/04/26 07:23:21;;;;;;;10.65;3.03;;;21.50;84.90;;;;;;5075616;28;20171;-79
2021/04/26 07:25:47;;;;;;;6.05;3.10;;;22.00;85.20;;;;;;5074854;28;20616;-80
2021/04/26 07:28:13;;;;;;;9.25;3.85;;;22.80;81.30;;;;;;5075943;28;20225;-79
2021/04/26 07:30:38;;;;;;;9.20;3.60;;;21.90;81.50;;;;;;5057901;28;20198;-78
2021/04/26 07:33:05;;;;;;;21.33;3.88;;;20.20;83.80;;;;;;5074632;28;20183;-79
2021/04/26 07:35:31;;;;;;;6.43;3.50;;;20.50;85.10;;;;;;5074266;28;20171;-78
2021/04/26 07:37:57;;;;;;;11.10;3.88;;;21.70;81.50;;;;;;5074355;28;20174;-78
2021/04/26 07:40:22;;;;;;;8.00;3.25;;;21.00;80.30;;;;;;5072911;28;20183;-78
2021/04/26 07:42:48;;;;;;;7.88;3.15;;;19.80;83.00;;;;;;5075625;28;20598;-77
2021/04/26 07:45:19;;;;;;;14.27;3.80;;;21.00;81.30;;;;;;5075607;28;20257;-78
2021/04/26 07:47:47;;;;;;;7.47;3.90;;;21.70;80.20;;;;;;5074387;28;20219;-78
2021/04/26 07:50:13;;;;;;;8.30;3.50;;;20.50;80.70;;;;;;5074987;28;20171;-78
2021/04/26 07:52:39;;;;;;;6.45;3.47;;;21.80;79.90;;;;;;5075639;28;20305;-77
2021/04/26 07:55:05;;;;;;;14.50;3.95;;;21.80;77.60;;;;;;5075490;28;20636;-78
2021/04/26 07:57:32;;;;;;;10.32;4.03;;;23.10;76.60;;;;;;5075510;28;20257;-78
2021/04/26 07:59:58;;;;;;;10.52;3.45;;;21.90;76.40;;;;;;5075292;28;20185;-78
2021/04/26 08:02:24;;;;;;;11.57;3.40;;;21.00;79.80;;;;;;5075159;28;20183;-78
2021/04/26 08:04:49;;;;;;;15.25;3.33;;;22.40;78.40;;;;;;5075067;28;20182;-78
2021/04/26 08:07:15;;;;;;;9.15;3.58;;;23.60;73.60;;;;;;5073875;28;20576;-78
2021/04/26 08:09:41;;;;;;;6.25;3.80;;;23.30;72.10;;;;;;5074759;28;20590;-79
2021/04/26 08:12:06;;;;;;;16.65;4.22;;;22.80;73.50;;;;;;5074873;28;20204;-78
2021/04/26 08:14:32;;;;;;;10.65;3.85;;;23.50;73.60;;;;;;5074913;28;20252;-78
2021/04/26 08:16:58;;;;;;;8.43;3.30;;;21.80;74.50;;;;;;5073617;28;20257;-78
2021/04/26 08:19:24;;;;;;;6.70;3.65;;;21.60;75.70;;;;;;5074915;28;20166;-78
2021/04/26 08:21:49;;;;;;;6.70;3.10;;;22.60;76.20;;;;;;5074785;28;20518;-77
2021/04/26 08:24:15;;;;;;;9.93;3.50;;;23.40;72.60;;;;;;5073825;28;20194;-77
2021/04/26 08:26:41;;;;;;;6.97;3.10;;;21.90;73.20;;;;;;5073647;28;20174;-78
2021/04/26 08:29:07;;;;;;;16.00;4.88;;;23.20;71.50;;;;;;5073306;28;20239;-78
2021/04/26 08:31:33;;;;;;;13.50;3.50;;;26.20;71.00;;;;;;5074160;28;20243;-78
2021/04/26 08:33:59;;;;;;;10.32;3.47;;;25.60;67.90;;;;;;5074601;28;20174;-77
2021/04/26 08:36:25;;;;;;;12.48;3.65;;;24.50;68.10;;;;;;5073678;28;20178;-79
2021/04/26 08:38:50;;;;;;;7.70;3.35;;;24.20;68.80;;;;;;5073466;28;20174;-79
2021/04/26 08:41:16;;;;;;;6.95;3.25;;;24.50;68.20;;;;;;5072048;28;20301;-78
2021/04/26 08:43:44;;;;;;;13.15;4.25;;;26.20;65.70;;;;;;5054844;28;20176;-78
2021/04/26 08:46:10;;;;;;;8.55;3.50;;;27.80;63.80;;;;;;5036918;28;20176;-78
2021/04/26 08:48:36;;;;;;;7.70;3.58;;;24.70;64.80;;;;;;5054305;28;20163;-78
2021/04/26 08:51:03;;;;;;;9.48;3.58;;;24.70;66.50;;;;;;5070859;28;20244;-79
2021/04/26 08:53:29;;;;;;;8.18;3.20;;;27.10;67.50;;;;;;5073934;28;20175;-78
2021/04/26 08:55:55;;;;;;;9.88;4.10;;;29.00;63.20;;;;;;5073106;28;20603;-79
2021/04/26 08:58:21;;;;;;;7.90;2.90;;;29.40;59.50;;;;;;5074061;28;20194;-78
2021/04/26 09:00:46;;;;;;;9.80;3.40;;;27.40;60.20;;;;;;5073730;28;20188;-78
2021/04/26 09:03:12;;;;;;;5.97;2.95;;;28.00;58.90;;;;;;5073771;28;20190;-78
2021/04/26 09:05:45;;;;;;;10.10;3.45;;;26.40;59.50;;;;;;5074382;28;20174;-78
2021/04/26 09:08:12;;;;;;;5.20;3.67;;;24.70;61.20;;;;;;5074150;28;20250;-78
2021/04/26 09:10:52;;;;;;;5.75;3.35;;;25.90;61.10;;;;;;5073411;28;20166;-79
2021/04/26 09:13:35;;;;;;;9.27;3.42;;;24.00;61.70;;;;;;5073844;28;20210;-79
2021/04/26 09:16:22;;;;;;;5.55;3.13;;;25.20;63.00;;;;;;5074098;28;20162;-78
2021/04/26 09:18:55;;;;;;;5.68;3.25;;;25.10;60.40;;;;;;5072753;28;20178;-79
2021/04/26 09:21:26;;;;;;;7.85;3.53;;;27.40;57.70;;;;;;5073672;28;20224;-78
2021/04/26 09:24:23;;;;;;;7.63;3.08;;;28.40;57.50;;;;;;5073504;28;20170;-78
2021/04/26 09:26:52;;;;;;;6.78;2.70;;;24.60;60.20;;;;;;5073658;28;20524;-78
2021/04/26 09:29:19;;;;;;;5.30;3.05;;;23.70;61.30;;;;;;5073387;28;20163;-78
2021/04/26 09:32:03;;;;;;;8.75;3.10;;;23.00;60.20;;;;;;5073628;28;20190;-79
2021/04/26 09:34:31;;;;;;;6.88;3.42;;;21.60;64.50;;;;;;5071848;28;20738;-78
2021/04/26 09:37:12;;;;;;;8.88;3.00;;;22.30;63.50;;;;;;5072235;28;20170;-78
2021/04/26 09:39:53;;;;;;;4.72;3.17;;;22.60;61.80;;;;;;5072077;28;20531;-78
2021/04/26 09:42:38;;;;;;;3.70;2.92;;;21.50;64.00;;;;;;5073189;28;20178;-78
2021/04/26 09:45:24;;;;;;;5.28;2.72;;;23.50;61.20;;;;;;5073278;28;20562;-79
2021/04/26 09:48:09;;;;;;;4.95;2.95;;;23.60;64.30;;;;;;5073408;28;20174;-78
2021/04/26 09:51:05;;;;;;;6.13;3.35;;;24.40;61.10;;;;;;5071768;28;20174;-79
2021/04/26 09:53:39;;;;;;;5.95;3.15;;;26.50;59.10;;;;;;5073462;28;20185;-78
2021/04/26 09:56:19;;;;;;;12.00;3.17;;;25.40;61.40;;;;;;5071846;28;20174;-78
2021/04/26 09:58:47;;;;;;;4.53;2.78;;;24.30;61.90;;;;;;5073343;28;20197;-79
2021/04/26 10:01:13;;;;;;;5.53;3.00;;;25.90;61.60;;;;;;5072940;28;20170;-79
2021/04/26 10:03:39;;;;;;;9.43;2.95;;;28.40;58.30;;;;;;5071760;28;20631;-79
2021/04/26 10:06:05;;;;;;;6.40;3.35;;;26.30;58.00;;;;;;5072059;28;20167;-78
2021/04/26 10:08:31;;;;;;;10.98;3.08;;;26.90;60.60;;;;;;5073242;28;20607;-79
2021/04/26 10:10:57;;;;;;;11.20;2.90;;;27.20;57.50;;;;;;5055691;28;20191;-79
2021/04/26 10:13:25;;;;;;;9.05;3.47;;;26.90;58.00;;;;;;5053669;28;20171;-79
2021/04/26 10:16:03;;;;;;;9.98;3.05;;;26.00;58.10;;;;;;5075869;28;20228;-79
2021/04/26 10:18:39;;;;;;;11.70;3.45;;;26.10;56.90;;;;;;5072685;28;20204;-78
2021/04/26 10:21:25;;;;;;;5.70;3.00;;;24.00;59.20;;;;;;5073350;28;20257;-78
2021/04/26 10:23:53;;;;;;;11.07;2.92;;;27.20;59.60;;;;;;5058870;28;20729;-79
2021/04/26 10:26:38;;;;;;;5.05;3.08;;;28.60;57.10;;;;;;5053029;28;20214;-78
2021/04/26 10:29:37;;;;;;;6.38;3.15;;;26.60;56.50;;;;;;5066504;28;20538;-78
2021/04/26 10:32:06;;;;;;;4.28;3.35;;;26.60;57.60;;;;;;5070419;28;20267;-78
2021/04/26 10:34:43;;;;;;;7.13;2.65;;;24.90;56.80;;;;;;5072790;28;20220;-78
2021/04/26 10:37:15;;;;;;;6.20;2.75;;;24.80;59.40;;;;;;5071486;28;20217;-78
2021/04/26 10:40:11;;;;;;;4.70;3.15;;;24.50;58.60;;;;;;5071056;28;20182;-78
2021/04/26 10:42:53;;;;;;;4.30;2.85;;;26.70;57.50;;;;;;5072641;28;20696;-78
2021/04/26 10:45:22;;;;;;;4.68;2.58;;;23.90;59.30;;;;;;5070514;28;20265;-79
2021/04/26 10:47:54;;;;;;;5.68;3.15;;;25.80;58.90;;;;;;5072296;28;20170;-79
2021/04/26 10:50:19;;;;;;;7.50;2.65;;;28.60;55.10;;;;;;5070003;28;20167;-78
2021/04/26 10:52:48;;;;;;;6.50;3.13;;;25.80;55.00;;;;;;5072313;28;20252;-78
2021/04/26 10:55:22;;;;;;;8.93;2.83;;;25.20;58.50;;;;;;5072207;28;20632;-77
2021/04/26 10:57:58;;;;;;;13.60;2.97;;;26.10;57.40;;;;;;5070779;28;20182;-77
2021/04/26 11:00:27;;;;;;;10.32;3.47;;;26.70;56.60;;;;;;5071888;28;20188;-79
2021/04/26 11:03:05;;;;;;;16.02;3.30;;;24.90;55.60;;;;;;5055698;28;20200;-76
2021/04/26 11:05:40;;;;;;;3.45;2.80;;;22.20;61.10;;;;;;5080388;28;20545;-78
2021/04/26 11:08:16;;;;;;;3.35;2.63;;;21.70;61.50;;;;;;5072543;28;20170;-77
2021/04/26 11:10:49;;;;;;;6.35;3.15;;;24.70;59.50;;;;;;5070648;28;20587;-78
2021/04/26 11:13:30;;;;;;;7.85;3.05;;;25.50;57.10;;;;;;5071984;28;20248;-78
2021/04/26 11:16:09;;;;;;;5.30;3.33;;;26.90;56.70;;;;;;5072358;28;20259;-78
2021/04/26 11:18:38;;;;;;;4.18;2.90;;;26.60;56.30;;;;;;5072711;28;20170;-77
2021/04/26 11:21:04;;;;;;;7.18;2.65;;;24.60;57.20;;;;;;5074351;28;20563;-78
2021/04/26 11:23:52;;;;;;;4.68;3.38;;;24.40;57.10;;;;;;5071054;28;20209;-78
2021/04/26 11:26:20;;;;;;;9.52;3.47;;;24.00;57.50;;;;;;5070999;28;20193;-78
2021/04/26 11:29:01;;;;;;;6.50;3.45;;;25.30;58.60;;;;;;5073872;28;20170;-79
2021/04/26 11:31:41;;;;;;;6.22;3.08;;;25.60;56.50;;;;;;5075568;28;20654;-80
2021/04/26 11:34:09;;;;;;;6.32;2.88;;;26.00;58.50;;;;;;5075294;28;20217;-79
2021/04/26 11:36:37;;;;;;;4.88;3.10;;;24.00;58.50;;;;;;5075747;28;20317;-78
2021/04/26 11:39:06;;;;;;;7.03;3.20;;;24.60;59.40;;;;;;5073664;28;20174;-77
2021/04/26 11:41:40;;;;;;;6.53;3.22;;;25.20;57.00;;;;;;5073868;28;20170;-78
2021/04/26 11:44:06;;;;;;;3.47;2.88;;;23.30;57.90;;;;;;5073983;28;20174;-78
2021/04/26 11:46:34;;;;;;;3.95;2.78;;;21.80;59.10;;;;;;5074020;28;20170;-77
2021/04/26 11:49:16;;;;;;;5.63;3.17;;;21.40;62.50;;;;;;5074296;28;20186;-78
2021/04/26 11:51:42;;;;;;;16.45;3.45;;;22.80;61.10;;;;;;5073137;28;20236;-78
2021/04/26 11:54:13;;;;;;;6.10;3.28;;;24.30;61.60;;;;;;5073128;28;20182;-77
2021/04/26 11:56:39;;;;;;;15.77;3.28;;;24.00;57.40;;;;;;5073831;28;20186;-77
2021/04/26 11:59:07;;;;;;;12.55;3.10;;;23.90;59.90;;;;;;5074859;28;20599;-78
2021/04/26 12:01:33;;;;;;;6.25;3.10;;;24.10;57.50;;;;;;5074450;28;20182;-78
2021/04/26 12:03:59;;;;;;;4.50;3.03;;;24.60;57.90;;;;;;5074221;28;20277;-78
2021/04/26 12:06:26;;;;;;;3.83;2.53;;;24.80;57.70;;;;;;5073281;28;20181;-78
2021/04/26 12:08:52;;;;;;;3.20;2.88;;;23.60;59.10;;;;;;5073193;28;20202;-78
2021/04/26 12:11:20;;;;;;;4.50;2.95;;;23.10;58.60;;;;;;5073953;28;20199;-77
2021/04/26 12:14:11;;;;;;;13.23;3.55;;;23.20;58.40;;;;;;5074922;28;20174;-78
2021/04/26 12:16:37;;;;;;;9.60;3.25;;;22.90;59.60;;;;;;5073496;28;20249;-78
2021/04/26 12:19:05;;;;;;;3.80;3.13;;;22.30;60.80;;;;;;5073666;28;20166;-78
2021/04/26 12:21:30;;;;;;;9.60;3.30;;;23.30;60.20;;;;;;5075210;28;20167;-78
2021/04/26 12:23:56;;;;;;;7.15;3.47;;;24.30;61.50;;;;;;5074902;28;20241;-78
2021/04/26 12:26:22;;;;;;;6.88;3.50;;;25.00;57.90;;;;;;5052962;28;20164;-78
2021/04/26 12:28:49;;;;;;;3.80;2.80;;;22.10;60.20;;;;;;5053885;28;20221;-77
2021/04/26 12:31:20;;;;;;;7.95;4.05;;;19.60;63.10;;;;;;5054778;28;20188;-77
2021/04/26 12:33:46;;;;;;;4.07;3.00;;;17.90;66.90;;;;;;5054736;28;20608;-78
2021/04/26 12:36:12;;;;;;;2.97;2.58;;;17.80;69.10;;;;;;5074673;28;20232;-78
2021/04/26 12:38:38;;;;;;;9.77;3.13;;;17.60;68.40;;;;;;5073167;28;20163;-77
2021/04/26 12:41:11;;;;;;;4.05;3.20;;;17.30;70.30;;;;;;5073238;28;20178;-78
2021/04/26 12:43:39;;;;;;;7.60;3.88;;;16.70;69.40;;;;;;5074326;28;20190;-78
2021/04/26 12:46:07;;;;;;;11.43;3.55;;;16.30;70.90;;;;;;5074200;28;20607;-78
2021/04/26 12:48:34;;;;;;;5.32;2.95;;;16.40;72.50;;;;;;5072667;28;20170;-78
2021/04/26 12:51:06;;;;;;;8.15;3.25;;;16.80;71.10;;;;;;5072885;28;20220;-78
2021/04/26 12:53:34;;;;;;;9.23;3.90;;;17.00;70.00;;;;;;5074313;28;20167;-77
2021/04/26 12:56:00;;;;;;;9.25;3.40;;;16.60;69.00;;;;;;5073768;28;20276;-77